sensor_id;sensor_type;location;lat;lon;timestamp;pressure;altitude;pressure_sealevel;temperature;humidity
70841;BME280;58465;51.534;9.934;2023-08-20T00:01:15;100387.50;;;25.92;64.11
70841;BME280;58465;51.534;9.934;2023-08-20T00:03:44;100387.72;;;25.88;63.99
70841;BME280;58465;51.534;9.934;2023-08-20T00:06:11;100388.84;;;25.86;64.21
70841;BME280;58465;51.534;9.934;2023-08-20T00:08:36;100391.34;;;25.89;64.15
70841;BME280;58465;51.534;9.934;2023-08-20T00:11:01;100389.97;;;25.83;64.41
70841;BME280;58465;51.534;9.934;2023-08-20T00:13:27;100391.22;;;25.79;64.39
70841;BME280;58465;51.534;9.934;2023-08-20T00:15:53;100392.47;;;25.75;64.58
70841;BME280;58465;51.534;9.934;2023-08-20T00:18:18;100402.41;;;25.87;64.07
70841;BME280;58465;51.534;9.934;2023-08-20T00:20:43;100398.78;;;25.87;64.11
70841;BME280;58465;51.534;9.934;2023-08-20T00:23:10;100408.88;;;25.75;64.44
70841;BME280;58465;51.534;9.934;2023-08-20T00:25:36;100405.00;;;25.78;64.50
70841;BME280;58465;51.534;9.934;2023-08-20T00:28:01;100404.63;;;25.71;64.53
70841;BME280;58465;51.534;9.934;2023-08-20T00:30:26;100395.78;;;25.68;64.50
70841;BME280;58465;51.534;9.934;2023-08-20T00:32:51;100403.38;;;25.64;64.94
70841;BME280;58465;51.534;9.934;2023-08-20T00:35:16;100398.25;;;25.60;64.99
70841;BME280;58465;51.534;9.934;2023-08-20T00:37:42;100401.03;;;25.71;64.58
70841;BME280;58465;51.534;9.934;2023-08-20T00:40:07;100407.47;;;25.70;64.68
70841;BME280;58465;51.534;9.934;2023-08-20T00:42:33;100405.38;;;25.62;64.93
70841;BME280;58465;51.534;9.934;2023-08-20T00:44:58;100404.63;;;25.71;64.59
70841;BME280;58465;51.534;9.934;2023-08-20T00:47:23;100412.47;;;25.65;64.62
70841;BME280;58465;51.534;9.934;2023-08-20T00:49:49;100414.22;;;25.66;64.72
70841;BME280;58465;51.534;9.934;2023-08-20T00:52:15;100407.13;;;25.63;64.47
70841;BME280;58465;51.534;9.934;2023-08-20T00:54:41;100411.03;;;25.59;64.84
70841;BME280;58465;51.534;9.934;2023-08-20T00:57:07;100404.38;;;25.63;64.62
70841;BME280;58465;51.534;9.934;2023-08-20T00:59:33;100405.56;;;25.59;64.54
70841;BME280;58465;51.534;9.934;2023-08-20T01:01:58;100398.16;;;25.61;64.62
70841;BME280;58465;51.534;9.934;2023-08-20T01:04:23;100391.88;;;25.59;64.26
70841;BME280;58465;51.534;9.934;2023-08-20T01:06:54;100402.81;;;25.59;64.47
70841;BME280;58465;51.534;9.934;2023-08-20T01:09:34;100405.19;;;25.52;64.44
70841;BME280;58465;51.534;9.934;2023-08-20T01:12:02;100424.69;;;25.48;64.66
70841;BME280;58465;51.534;9.934;2023-08-20T01:14:28;100424.06;;;25.44;64.90
70841;BME280;58465;51.534;9.934;2023-08-20T01:16:53;100429.91;;;25.51;64.61
70841;BME280;58465;51.534;9.934;2023-08-20T01:19:19;100430.16;;;25.48;64.42
70841;BME280;58465;51.534;9.934;2023-08-20T01:27:37;100427.41;;;25.37;64.97
70841;BME280;58465;51.534;9.934;2023-08-20T01:30:06;100430.25;;;25.35;65.02
70841;BME280;58465;51.534;9.934;2023-08-20T01:32:31;100425.88;;;25.33;64.97
70841;BME280;58465;51.534;9.934;2023-08-20T01:34:57;100428.41;;;25.36;64.86
70841;BME280;58465;51.534;9.934;2023-08-20T01:37:22;100433.09;;;25.34;64.98
70841;BME280;58465;51.534;9.934;2023-08-20T01:39:47;100426.88;;;25.32;65.14
70841;BME280;58465;51.534;9.934;2023-08-20T01:42:13;100437.97;;;25.41;64.67
70841;BME280;58465;51.534;9.934;2023-08-20T01:44:38;100443.56;;;25.40;64.81
70841;BME280;58465;51.534;9.934;2023-08-20T01:47:03;100440.59;;;25.43;64.36
70841;BME280;58465;51.534;9.934;2023-08-20T01:49:28;100435.34;;;25.40;64.67
70841;BME280;58465;51.534;9.934;2023-08-20T01:51:53;100434.59;;;25.38;64.59
70841;BME280;58465;51.534;9.934;2023-08-20T01:54:18;100440.44;;;25.33;64.82
70841;BME280;58465;51.534;9.934;2023-08-20T01:56:44;100450.38;;;25.34;64.73
70841;BME280;58465;51.534;9.934;2023-08-20T01:59:09;100442.78;;;25.38;64.58
70841;BME280;58465;51.534;9.934;2023-08-20T02:01:34;100431.75;;;25.39;64.55
70841;BME280;58465;51.534;9.934;2023-08-20T02:03:59;100437.69;;;25.33;64.36
70841;BME280;58465;51.534;9.934;2023-08-20T02:06:24;100431.47;;;25.31;64.46
70841;BME280;58465;51.534;9.934;2023-08-20T02:08:49;100438.81;;;25.31;64.71
70841;BME280;58465;51.534;9.934;2023-08-20T02:11:15;100443.16;;;25.33;64.58
70841;BME280;58465;51.534;9.934;2023-08-20T02:13:40;100440.53;;;25.32;64.53
70841;BME280;58465;51.534;9.934;2023-08-20T02:16:05;100431.59;;;25.30;64.47
70841;BME280;58465;51.534;9.934;2023-08-20T02:18:31;100437.06;;;25.30;64.48
70841;BME280;58465;51.534;9.934;2023-08-20T02:20:56;100435.31;;;25.29;64.68
70841;BME280;58465;51.534;9.934;2023-08-20T02:23:22;100430.97;;;25.26;64.87
70841;BME280;58465;51.534;9.934;2023-08-20T02:25:47;100438.19;;;25.27;64.67
70841;BME280;58465;51.534;9.934;2023-08-20T02:28:13;100429.97;;;25.27;64.79
70841;BME280;58465;51.534;9.934;2023-08-20T02:30:44;100434.81;;;25.24;64.94
70841;BME280;58465;51.534;9.934;2023-08-20T02:33:10;100433.69;;;25.26;64.97
70841;BME280;58465;51.534;9.934;2023-08-20T02:35:38;100432.06;;;25.24;65.21
70841;BME280;58465;51.534;9.934;2023-08-20T02:38:04;100431.19;;;25.23;65.17
70841;BME280;58465;51.534;9.934;2023-08-20T02:40:29;100420.97;;;25.14;65.32
70841;BME280;58465;51.534;9.934;2023-08-20T02:42:55;100424.59;;;25.14;65.27
70841;BME280;58465;51.534;9.934;2023-08-20T02:45:20;100420.59;;;25.19;65.35
70841;BME280;58465;51.534;9.934;2023-08-20T02:47:45;100416.88;;;25.20;65.31
70841;BME280;58465;51.534;9.934;2023-08-20T02:50:10;100415.63;;;25.12;65.28
70841;BME280;58465;51.534;9.934;2023-08-20T02:52:35;100426.44;;;25.14;65.25
70841;BME280;58465;51.534;9.934;2023-08-20T02:55:01;100425.56;;;25.13;65.43
70841;BME280;58465;51.534;9.934;2023-08-20T02:57:26;100429.28;;;25.12;65.51
70841;BME280;58465;51.534;9.934;2023-08-20T02:59:51;100420.31;;;25.10;65.45
70841;BME280;58465;51.534;9.934;2023-08-20T03:02:16;100415.72;;;25.11;65.55
70841;BME280;58465;51.534;9.934;2023-08-20T03:04:42;100417.59;;;25.10;65.34
70841;BME280;58465;51.534;9.934;2023-08-20T03:07:07;100410.38;;;25.09;65.43
70841;BME280;58465;51.534;9.934;2023-08-20T03:09:32;100408.78;;;25.07;65.45
70841;BME280;58465;51.534;9.934;2023-08-20T03:11:58;100418.47;;;25.11;65.38
70841;BME280;58465;51.534;9.934;2023-08-20T03:14:23;100415.56;;;25.01;65.72
70841;BME280;58465;51.534;9.934;2023-08-20T03:16:48;100427.25;;;25.03;65.75
70841;BME280;58465;51.534;9.934;2023-08-20T03:19:14;100426.50;;;25.01;65.68
70841;BME280;58465;51.534;9.934;2023-08-20T03:21:40;100428.91;;;25.06;65.81
70841;BME280;58465;51.534;9.934;2023-08-20T03:24:05;100431.75;;;25.04;65.88
70841;BME280;58465;51.534;9.934;2023-08-20T03:26:30;100428.25;;;25.02;65.96
70841;BME280;58465;51.534;9.934;2023-08-20T03:28:56;100439.81;;;25.06;65.60
70841;BME280;58465;51.534;9.934;2023-08-20T03:31:21;100437.97;;;25.06;65.70
70841;BME280;58465;51.534;9.934;2023-08-20T03:33:46;100440.81;;;25.05;65.79
70841;BME280;58465;51.534;9.934;2023-08-20T03:36:12;100434.59;;;25.03;65.99
70841;BME280;58465;51.534;9.934;2023-08-20T03:38:38;100439.19;;;25.02;65.85
70841;BME280;58465;51.534;9.934;2023-08-20T03:41:03;100431.38;;;25.09;65.77
70841;BME280;58465;51.534;9.934;2023-08-20T03:43:28;100443.59;;;25.16;65.60
70841;BME280;58465;51.534;9.934;2023-08-20T03:45:53;100439.47;;;25.10;65.94
70841;BME280;58465;51.534;9.934;2023-08-20T03:48:18;100442.44;;;25.07;65.82
70841;BME280;58465;51.534;9.934;2023-08-20T03:50:44;100436.44;;;25.02;66.09
70841;BME280;58465;51.534;9.934;2023-08-20T03:53:09;100435.69;;;25.00;66.35
70841;BME280;58465;51.534;9.934;2023-08-20T03:55:34;100435.69;;;25.00;66.31
70841;BME280;58465;51.534;9.934;2023-08-20T03:57:59;100437.91;;;24.95;66.64
70841;BME280;58465;51.534;9.934;2023-08-20T04:00:24;100437.16;;;24.93;66.58
70841;BME280;58465;51.534;9.934;2023-08-20T04:02:49;100440.41;;;24.98;66.70
70841;BME280;58465;51.534;9.934;2023-08-20T04:05:15;100440.41;;;24.98;66.56
70841;BME280;58465;51.534;9.934;2023-08-20T04:07:40;100439.66;;;24.96;66.73
70841;BME280;58465;51.534;9.934;2023-08-20T04:10:05;100448.94;;;24.94;67.06
70841;BME280;58465;51.534;9.934;2023-08-20T04:12:32;100448.25;;;24.90;67.20
70841;BME280;58465;51.534;9.934;2023-08-20T04:14:58;100462.50;;;24.95;66.95
70841;BME280;58465;51.534;9.934;2023-08-20T04:17:23;100465.88;;;24.99;67.17
70841;BME280;58465;51.534;9.934;2023-08-20T04:19:48;100468.72;;;24.97;66.97
70841;BME280;58465;51.534;9.934;2023-08-20T04:22:13;100473.53;;;24.94;67.10
70841;BME280;58465;51.534;9.934;2023-08-20T04:24:39;100474.41;;;24.94;67.13
70841;BME280;58465;51.534;9.934;2023-08-20T04:27:04;100476.28;;;24.94;67.23
70841;BME280;58465;51.534;9.934;2023-08-20T04:29:29;100479.19;;;24.91;67.54
70841;BME280;58465;51.534;9.934;2023-08-20T04:31:54;100476.16;;;24.95;67.18
70841;BME280;58465;51.534;9.934;2023-08-20T04:34:19;100474.41;;;24.94;67.28
70841;BME280;58465;51.534;9.934;2023-08-20T04:36:44;100482.72;;;24.93;67.29
70841;BME280;58465;51.534;9.934;2023-08-20T04:39:10;100484.88;;;25.00;66.88
70841;BME280;58465;51.534;9.934;2023-08-20T04:41:35;100483.13;;;24.99;67.15
70841;BME280;58465;51.534;9.934;2023-08-20T04:44:00;100485.53;;;25.04;66.70
70841;BME280;58465;51.534;9.934;2023-08-20T04:46:25;100483.25;;;24.98;67.01
70841;BME280;58465;51.534;9.934;2023-08-20T04:48:50;100492.22;;;24.87;67.43
70841;BME280;58465;51.534;9.934;2023-08-20T04:51:16;100502.72;;;24.93;67.45
70841;BME280;58465;51.534;9.934;2023-08-20T04:53:41;100499.88;;;24.95;67.37
70841;BME280;58465;51.534;9.934;2023-08-20T04:56:06;100507.00;;;24.97;67.06
70841;BME280;58465;51.534;9.934;2023-08-20T04:58:31;100508.19;;;24.93;67.52
70841;BME280;58465;51.534;9.934;2023-08-20T05:00:57;100506.34;;;24.94;67.57
70841;BME280;58465;51.534;9.934;2023-08-20T05:03:22;100508.97;;;24.95;67.25
70841;BME280;58465;51.534;9.934;2023-08-20T05:05:50;100506.72;;;25.00;67.10
70841;BME280;58465;51.534;9.934;2023-08-20T05:08:15;100509.63;;;24.99;67.32
70841;BME280;58465;51.534;9.934;2023-08-20T05:10:41;100509.94;;;24.94;67.38
70841;BME280;58465;51.534;9.934;2023-08-20T05:13:06;100507.72;;;24.99;67.55
70841;BME280;58465;51.534;9.934;2023-08-20T05:15:31;100501.81;;;25.05;67.03
70841;BME280;58465;51.534;9.934;2023-08-20T05:17:56;100504.56;;;25.05;66.95
70841;BME280;58465;51.534;9.934;2023-08-20T05:20:21;100502.81;;;25.04;66.90
70841;BME280;58465;51.534;9.934;2023-08-20T05:22:47;100507.28;;;25.05;67.13
70841;BME280;58465;51.534;9.934;2023-08-20T05:25:12;100500.72;;;25.08;67.05
70841;BME280;58465;51.534;9.934;2023-08-20T05:27:37;100503.09;;;25.12;66.91
70841;BME280;58465;51.534;9.934;2023-08-20T05:30:02;100504.06;;;25.11;66.83
70841;BME280;58465;51.534;9.934;2023-08-20T05:32:28;100499.25;;;25.15;66.75
70841;BME280;58465;51.534;9.934;2023-08-20T05:34:53;100507.56;;;25.13;67.03
70841;BME280;58465;51.534;9.934;2023-08-20T05:37:18;100517.69;;;25.24;66.69
70841;BME280;58465;51.534;9.934;2023-08-20T05:39:44;100526.66;;;25.26;66.39
70841;BME280;58465;51.534;9.934;2023-08-20T05:42:09;100524.66;;;25.28;66.55
70841;BME280;58465;51.534;9.934;2023-08-20T05:44:34;100526.53;;;25.28;66.40
70841;BME280;58465;51.534;9.934;2023-08-20T05:47:00;100526.22;;;25.20;66.50
70841;BME280;58465;51.534;9.934;2023-08-20T05:49:26;100534.09;;;25.24;66.38
70841;BME280;58465;51.534;9.934;2023-08-20T05:51:51;100540.34;;;25.26;66.43
70841;BME280;58465;51.534;9.934;2023-08-20T05:54:16;100550.03;;;25.30;66.39
70841;BME280;58465;51.534;9.934;2023-08-20T05:56:41;100549.22;;;25.41;66.00
70841;BME280;58465;51.534;9.934;2023-08-20T05:59:06;100552.81;;;25.41;66.01
70841;BME280;58465;51.534;9.934;2023-08-20T06:01:31;100550.75;;;25.45;65.79
70841;BME280;58465;51.534;9.934;2023-08-20T06:03:57;100551.06;;;25.40;65.90
70841;BME280;58465;51.534;9.934;2023-08-20T06:06:22;100544.63;;;25.41;65.86
70841;BME280;58465;51.534;9.934;2023-08-20T06:08:47;100550.19;;;25.40;65.73
70841;BME280;58465;51.534;9.934;2023-08-20T06:11:12;100546.19;;;25.33;66.06
70841;BME280;58465;51.534;9.934;2023-08-20T06:13:38;100557.03;;;25.34;65.85
70841;BME280;58465;51.534;9.934;2023-08-20T06:16:03;100556.91;;;25.36;65.88
70841;BME280;58465;51.534;9.934;2023-08-20T06:18:28;100560.81;;;25.44;65.38
70841;BME280;58465;51.534;9.934;2023-08-20T06:20:53;100573.38;;;25.47;65.38
70841;BME280;58465;51.534;9.934;2023-08-20T06:23:18;100567.16;;;25.45;65.36
70841;BME280;58465;51.534;9.934;2023-08-20T06:25:44;100567.03;;;25.46;65.42
70841;BME280;58465;51.534;9.934;2023-08-20T06:28:09;100558.19;;;25.43;65.53
70841;BME280;58465;51.534;9.934;2023-08-20T06:30:37;100558.28;;;25.41;65.49
70841;BME280;58465;51.534;9.934;2023-08-20T06:33:02;100554.78;;;25.39;65.37
70841;BME280;58465;51.534;9.934;2023-08-20T06:35:27;100554.69;;;25.41;65.25
70841;BME280;58465;51.534;9.934;2023-08-20T06:37:53;100561.41;;;25.37;65.49
70841;BME280;58465;51.534;9.934;2023-08-20T06:40:18;100566.22;;;25.33;65.32
70841;BME280;58465;51.534;9.934;2023-08-20T06:42:43;100566.09;;;25.35;65.60
70841;BME280;58465;51.534;9.934;2023-08-20T06:45:08;100571.25;;;25.63;64.36
70841;BME280;58465;51.534;9.934;2023-08-20T06:47:34;100576.06;;;25.83;63.73
70841;BME280;58465;51.534;9.934;2023-08-20T06:49:59;100577.63;;;26.10;63.24
70841;BME280;58465;51.534;9.934;2023-08-20T06:52:25;100570.88;;;26.49;61.88
70841;BME280;58465;51.534;9.934;2023-08-20T06:54:50;100575.47;;;26.82;60.74
70841;BME280;58465;51.534;9.934;2023-08-20T06:57:15;100568.28;;;26.70;60.72
70841;BME280;58465;51.534;9.934;2023-08-20T06:59:40;100565.16;;;26.52;61.43
70841;BME280;58465;51.534;9.934;2023-08-20T07:02:07;100566.38;;;26.48;61.56
70841;BME280;58465;51.534;9.934;2023-08-20T07:04:32;100559.56;;;26.42;61.69
70841;BME280;58465;51.534;9.934;2023-08-20T07:06:58;100563.78;;;26.46;61.50
70841;BME280;58465;51.534;9.934;2023-08-20T07:09:23;100560.78;;;26.83;60.49
70841;BME280;58465;51.534;9.934;2023-08-20T07:11:48;100564.75;;;27.12;59.52
70841;BME280;58465;51.534;9.934;2023-08-20T07:14:13;100560.03;;;27.03;59.41
70841;BME280;58465;51.534;9.934;2023-08-20T07:16:39;100563.41;;;27.18;58.97
70841;BME280;58465;51.534;9.934;2023-08-20T07:19:04;100570.69;;;27.83;57.19
70841;BME280;58465;51.534;9.934;2023-08-20T07:21:29;100558.66;;;28.16;56.20
70841;BME280;58465;51.534;9.934;2023-08-20T07:23:54;100559.34;;;28.29;55.47
70841;BME280;58465;51.534;9.934;2023-08-20T07:26:19;100561.88;;;28.21;55.65
70841;BME280;58465;51.534;9.934;2023-08-20T07:28:45;100554.22;;;27.83;56.40
70841;BME280;58465;51.534;9.934;2023-08-20T07:31:22;100553.84;;;27.44;57.66
70841;BME280;58465;51.534;9.934;2023-08-20T07:33:48;100548.50;;;27.31;57.75
70841;BME280;58465;51.534;9.934;2023-08-20T07:36:14;100539.47;;;27.20;58.03
70841;BME280;58465;51.534;9.934;2023-08-20T07:38:39;100543.81;;;27.11;58.42
70841;BME280;58465;51.534;9.934;2023-08-20T07:41:07;100532.03;;;27.00;58.94
70841;BME280;58465;51.534;9.934;2023-08-20T07:43:32;100532.91;;;27.00;58.75
70841;BME280;58465;51.534;9.934;2023-08-20T07:45:57;100522.91;;;26.88;58.96
70841;BME280;58465;51.534;9.934;2023-08-20T07:48:22;100524.28;;;26.82;59.06
70841;BME280;58465;51.534;9.934;2023-08-20T07:50:48;100527.66;;;26.86;59.15
70841;BME280;58465;51.534;9.934;2023-08-20T07:53:13;100532.28;;;26.96;58.87
70841;BME280;58465;51.534;9.934;2023-08-20T07:55:39;100532.63;;;26.92;58.93
70841;BME280;58465;51.534;9.934;2023-08-20T07:58:04;100537.63;;;26.98;59.08
70841;BME280;58465;51.534;9.934;2023-08-20T08:00:29;100541.59;;;27.05;58.85
70841;BME280;58465;51.534;9.934;2023-08-20T08:02:54;100544.31;;;27.16;58.74
70841;BME280;58465;51.534;9.934;2023-08-20T08:05:19;100542.31;;;27.29;58.22
70841;BME280;58465;51.534;9.934;2023-08-20T08:07:44;100553.22;;;27.41;57.99
70841;BME280;58465;51.534;9.934;2023-08-20T08:10:10;100551.78;;;27.25;58.11
70841;BME280;58465;51.534;9.934;2023-08-20T08:12:35;100550.94;;;27.14;58.43
70841;BME280;58465;51.534;9.934;2023-08-20T08:15:00;100547.72;;;27.09;58.84
70841;BME280;58465;51.534;9.934;2023-08-20T08:17:25;100546.09;;;27.06;58.65
70841;BME280;58465;51.534;9.934;2023-08-20T08:19:50;100545.34;;;27.04;58.65
70841;BME280;58465;51.534;9.934;2023-08-20T08:22:18;100559.41;;;27.11;58.57
70841;BME280;58465;51.534;9.934;2023-08-20T08:24:43;100560.28;;;27.11;58.30
70841;BME280;58465;51.534;9.934;2023-08-20T08:27:09;100561.91;;;27.14;58.63
70841;BME280;58465;51.534;9.934;2023-08-20T08:29:34;100573.50;;;27.17;58.10
70841;BME280;58465;51.534;9.934;2023-08-20T08:31:59;100574.72;;;27.24;57.92
70841;BME280;58465;51.534;9.934;2023-08-20T08:34:24;100561.34;;;27.31;57.77
70841;BME280;58465;51.534;9.934;2023-08-20T08:36:49;100556.63;;;27.33;57.75
70841;BME280;58465;51.534;9.934;2023-08-20T08:39:14;100564.47;;;27.38;57.86
70841;BME280;58465;51.534;9.934;2023-08-20T08:41:40;100555.09;;;27.40;57.58
70841;BME280;58465;51.534;9.934;2023-08-20T08:44:06;100556.38;;;27.36;57.74
70841;BME280;58465;51.534;9.934;2023-08-20T08:46:33;100566.47;;;27.36;57.61
70841;BME280;58465;51.534;9.934;2023-08-20T08:49:00;100568.59;;;27.32;57.80
70841;BME280;58465;51.534;9.934;2023-08-20T08:51:25;100577.09;;;27.29;57.68
70841;BME280;58465;51.534;9.934;2023-08-20T08:53:50;100576.22;;;27.28;57.79
70841;BME280;58465;51.534;9.934;2023-08-20T08:56:16;100572.81;;;27.36;57.72
70841;BME280;58465;51.534;9.934;2023-08-20T08:58:41;100572.22;;;27.21;57.88
70841;BME280;58465;51.534;9.934;2023-08-20T09:01:07;100564.00;;;27.21;58.00
70841;BME280;58465;51.534;9.934;2023-08-20T09:03:32;100560.47;;;27.30;57.65
70841;BME280;58465;51.534;9.934;2023-08-20T09:05:58;100566.25;;;27.27;57.68
70841;BME280;58465;51.534;9.934;2023-08-20T09:08:29;100556.50;;;27.34;57.42
70841;BME280;58465;51.534;9.934;2023-08-20T09:10:55;100558.47;;;27.32;57.62
70841;BME280;58465;51.534;9.934;2023-08-20T09:13:24;100560.47;;;27.30;57.67
70841;BME280;58465;51.534;9.934;2023-08-20T09:15:53;100567.81;;;27.41;57.40
70841;BME280;58465;51.534;9.934;2023-08-20T09:18:18;100559.31;;;27.55;56.74
70841;BME280;58465;51.534;9.934;2023-08-20T09:20:43;100565.69;;;27.56;56.97
70841;BME280;58465;51.534;9.934;2023-08-20T09:23:11;100557.47;;;27.56;56.80
70841;BME280;58465;51.534;9.934;2023-08-20T09:25:38;100556.59;;;27.55;56.69
70841;BME280;58465;51.534;9.934;2023-08-20T09:28:03;100557.78;;;27.51;56.84
70841;BME280;58465;51.534;9.934;2023-08-20T09:30:29;100553.97;;;27.43;57.29
70841;BME280;58465;51.534;9.934;2023-08-20T09:35:49;100555.09;;;27.40;57.23
70841;BME280;58465;51.534;9.934;2023-08-20T09:38:15;100555.09;;;27.40;57.04
70841;BME280;58465;51.534;9.934;2023-08-20T09:40:43;100549.75;;;27.39;57.19
70841;BME280;58465;51.534;9.934;2023-08-20T09:43:09;100551.63;;;27.38;57.17
70841;BME280;58465;51.534;9.934;2023-08-20T09:45:36;100554.22;;;27.40;57.25
70841;BME280;58465;51.534;9.934;2023-08-20T09:48:02;100550.88;;;27.36;57.19
70841;BME280;58465;51.534;9.934;2023-08-20T09:50:30;100541.78;;;27.36;57.49
70841;BME280;58465;51.534;9.934;2023-08-20T09:53:25;100548.72;;;27.40;57.08
70841;BME280;58465;51.534;9.934;2023-08-20T09:55:47;100538.78;;;27.39;57.18
70841;BME280;58465;51.534;9.934;2023-08-20T09:58:14;100537.28;;;27.34;57.23
70841;BME280;58465;51.534;9.934;2023-08-20T10:00:41;100535.00;;;27.40;57.33
70841;BME280;58465;51.534;9.934;2023-08-20T10:03:07;100534.28;;;27.38;57.21
70841;BME280;58465;51.534;9.934;2023-08-20T10:05:32;100531.06;;;27.32;57.35
70841;BME280;58465;51.534;9.934;2023-08-20T10:07:58;100530.84;;;27.24;57.51
70841;BME280;58465;51.534;9.934;2023-08-20T10:10:24;100531.72;;;27.25;57.46
70841;BME280;58465;51.534;9.934;2023-08-20T10:12:49;100521.22;;;27.30;57.60
70841;BME280;58465;51.534;9.934;2023-08-20T10:15:15;100521.94;;;27.32;57.30
70841;BME280;58465;51.534;9.934;2023-08-20T10:17:41;100524.44;;;27.35;57.37
70841;BME280;58465;51.534;9.934;2023-08-20T10:20:07;100522.31;;;27.39;57.29
70841;BME280;58465;51.534;9.934;2023-08-20T10:22:36;100524.66;;;27.43;57.21
70841;BME280;58465;51.534;9.934;2023-08-20T10:25:05;100524.78;;;27.42;57.22
70841;BME280;58465;51.534;9.934;2023-08-20T10:27:31;100525.78;;;27.41;57.04
70841;BME280;58465;51.534;9.934;2023-08-20T10:29:58;100524.19;;;27.38;57.10
70841;BME280;58465;51.534;9.934;2023-08-20T10:35:07;100512.22;;;27.39;57.08
70841;BME280;58465;51.534;9.934;2023-08-20T10:37:33;100522.78;;;27.44;57.09
70841;BME280;58465;51.534;9.934;2023-08-20T10:39:59;100517.19;;;27.45;57.16
70841;BME280;58465;51.534;9.934;2023-08-20T10:42:27;100527.53;;;27.42;57.01
70841;BME280;58465;51.534;9.934;2023-08-20T10:44:59;100519.59;;;27.39;57.31
70841;BME280;58465;51.534;9.934;2023-08-20T10:47:25;100524.78;;;27.42;57.25
70841;BME280;58465;51.534;9.934;2023-08-20T10:49:51;100522.91;;;27.42;57.17
70841;BME280;58465;51.534;9.934;2023-08-20T10:52:17;100523.78;;;27.43;57.13
70841;BME280;58465;51.534;9.934;2023-08-20T10:54:43;100515.69;;;27.41;57.09
70841;BME280;58465;51.534;9.934;2023-08-20T10:57:08;100522.03;;;27.42;56.96
70841;BME280;58465;51.534;9.934;2023-08-20T10:59:34;100514.81;;;27.41;57.11
70841;BME280;58465;51.534;9.934;2023-08-20T11:02:03;100519.44;;;27.40;57.13
70841;BME280;58465;51.534;9.934;2023-08-20T11:04:32;100514.09;;;27.39;57.25
70841;BME280;58465;51.534;9.934;2023-08-20T11:06:58;100510.19;;;27.41;57.12
70841;BME280;58465;51.534;9.934;2023-08-20T11:09:25;100512.34;;;27.38;57.01
70841;BME280;58465;51.534;9.934;2023-08-20T11:11:51;100507.59;;;27.40;57.02
70841;BME280;58465;51.534;9.934;2023-08-20T11:14:17;100505.72;;;27.40;57.12
70841;BME280;58465;51.534;9.934;2023-08-20T11:16:43;100510.31;;;27.40;57.06
70841;BME280;58465;51.534;9.934;2023-08-20T11:19:11;100508.44;;;27.40;57.12
70841;BME280;58465;51.534;9.934;2023-08-20T11:21:40;100504.72;;;27.41;56.95
70841;BME280;58465;51.534;9.934;2023-08-20T11:24:06;100493.88;;;27.40;57.07
70841;BME280;58465;51.534;9.934;2023-08-20T11:26:31;100498.22;;;27.42;56.99
70841;BME280;58465;51.534;9.934;2023-08-20T11:28:57;100503.72;;;27.42;56.85
70841;BME280;58465;51.534;9.934;2023-08-20T11:31:22;100504.59;;;27.43;56.93
70841;BME280;58465;51.534;9.934;2023-08-20T11:33:48;100511.69;;;27.45;57.06
70841;BME280;58465;51.534;9.934;2023-08-20T11:36:19;100504.53;;;27.54;56.60
70841;BME280;58465;51.534;9.934;2023-08-20T11:38:54;100507.28;;;27.54;56.44
70841;BME280;58465;51.534;9.934;2023-08-20T11:41:19;100508.19;;;27.54;56.50
70841;BME280;58465;51.534;9.934;2023-08-20T11:43:45;100496.31;;;27.54;56.55
70841;BME280;58465;51.534;9.934;2023-08-20T11:46:14;100496.56;;;27.62;56.34
70841;BME280;58465;51.534;9.934;2023-08-20T11:51:24;100503.81;;;27.84;55.77
70841;BME280;58465;51.534;9.934;2023-08-20T11:53:49;100501.66;;;27.87;55.65
70841;BME280;58465;51.534;9.934;2023-08-20T11:56:14;100496.03;;;27.89;55.59
70841;BME280;58465;51.534;9.934;2023-08-20T11:58:40;100496.50;;;27.94;55.27
70841;BME280;58465;51.534;9.934;2023-08-20T12:01:07;100499.44;;;28.02;55.23
70841;BME280;58465;51.534;9.934;2023-08-20T12:03:33;100488.84;;;27.97;55.22
70841;BME280;58465;51.534;9.934;2023-08-20T12:05:58;100489.59;;;27.99;55.15
70841;BME280;58465;51.534;9.934;2023-08-20T12:08:23;100488.31;;;28.03;55.21
70841;BME280;58465;51.534;9.934;2023-08-20T12:10:48;100488.31;;;28.03;55.14
70841;BME280;58465;51.534;9.934;2023-08-20T12:13:13;100486.78;;;28.11;54.89
70841;BME280;58465;51.534;9.934;2023-08-20T12:15:39;100482.28;;;28.10;54.92
70841;BME280;58465;51.534;9.934;2023-08-20T12:18:04;100478.13;;;28.15;54.69
70841;BME280;58465;51.534;9.934;2023-08-20T12:20:30;100480.66;;;28.28;54.27
70841;BME280;58465;51.534;9.934;2023-08-20T12:22:59;100474.97;;;28.40;54.10
70841;BME280;58465;51.534;9.934;2023-08-20T12:25:25;100468.78;;;28.58;53.59
70841;BME280;58465;51.534;9.934;2023-08-20T12:27:51;100478.25;;;28.74;53.32
70841;BME280;58465;51.534;9.934;2023-08-20T12:30:16;100475.34;;;28.76;53.23
70841;BME280;58465;51.534;9.934;2023-08-20T12:32:41;100475.56;;;28.84;53.05
70841;BME280;58465;51.534;9.934;2023-08-20T12:35:06;100470.81;;;28.96;52.76
70841;BME280;58465;51.534;9.934;2023-08-20T12:37:31;100470.56;;;29.18;52.15
70841;BME280;58465;51.534;9.934;2023-08-20T12:39:57;100466.13;;;29.36;51.47
70841;BME280;58465;51.534;9.934;2023-08-20T12:42:22;100462.06;;;29.40;51.16
70841;BME280;58465;51.534;9.934;2023-08-20T12:44:48;100469.84;;;29.35;51.32
70841;BME280;58465;51.534;9.934;2023-08-20T12:47:13;100467.25;;;29.43;51.24
70841;BME280;58465;51.534;9.934;2023-08-20T12:49:38;100459.84;;;29.15;51.84
70841;BME280;58465;51.534;9.934;2023-08-20T12:52:03;100465.66;;;29.22;51.35
70841;BME280;58465;51.534;9.934;2023-08-20T12:54:29;100468.22;;;29.04;51.94
70841;BME280;58465;51.534;9.934;2023-08-20T12:56:54;100461.56;;;29.06;52.10